Time,TemperatureF,DewpointF,PressureIn,WindDirection,WindDirectionDegrees,WindSpeedMPH,WindSpeedGustMPH,Humidity,HourlyPrecipIn,Conditions,Clouds,dailyrainin,SoftwareType,DateUTC
2013-01-25 00:10:00,16.9,6.5,30.48,SSW,212,0.0,0.0,63,0.00,,,0.00,Wunderground v.1.12,2013-01-25 05:10:00,
2013-01-25 00:20:00,16.9,6.1,30.46,SSW,212,0.0,0.0,62,0.00,,,0.00,Wunderground v.1.12,2013-01-25 05:20:00,
2013-01-25 00:30:00,16.9,6.1,30.45,N/A,-737280,0.0,0.0,62,0.00,,,0.00,Wunderground v.1.12,2013-01-25 05:30:00,
2013-01-25 00:40:00,16.9,6.1,30.45,SSW,212,0.0,0.0,62,0.00,,,0.00,Wunderground v.1.12,2013-01-25 05:40:00,
2013-01-25 00:50:00,16.9,6.1,30.45,N/A,-737280,0.0,0.0,62,0.00,,,0.00,Wunderground v.1.12,2013-01-25 05:50:00,
2013-01-25 01:00:00,16.9,6.1,30.44,N/A,-737280,0.0,0.0,62,0.00,,,0.00,Wunderground v.1.12,2013-01-25 06:00:00,
2013-01-25 01:10:00,17.0,5.9,30.44,SSW,213,0.0,0.0,61,0.00,,,0.00,Wunderground v.1.12,2013-01-25 06:10:00,
2013-01-25 01:20:00,17.0,5.9,30.43,SSW,212,0.0,0.0,61,0.00,,,0.00,Wunderground v.1.12,2013-01-25 06:20:00,
2013-01-25 01:30:00,17.0,6.2,30.42,N/A,-737280,0.0,0.0,62,0.00,,,0.00,Wunderground v.1.12,2013-01-25 06:30:00,
2013-01-25 01:40:00,17.0,6.2,30.42,SSW,212,0.0,0.0,62,0.00,,,0.00,Wunderground v.1.12,2013-01-25 06:40:00,
2013-01-25 01:50:00,17.0,6.2,30.42,SSW,212,0.0,0.0,62,0.00,,,0.00,Wunderground v.1.12,2013-01-25 06:50:00,
2013-01-25 02:00:00,17.2,6.0,30.42,ESE,113,0.0,3.0,61,0.00,,,0.00,Wunderground v.1.12,2013-01-25 07:00:00,
2013-01-25 02:10:00,17.2,6.0,30.42,ESE,103,0.0,0.0,61,0.00,,,0.00,Wunderground v.1.12,2013-01-25 07:10:00,
2013-01-25 02:20:00,17.2,6.0,30.42,ESE,103,0.0,0.0,61,0.00,,,0.00,Wunderground v.1.12,2013-01-25 07:20:00,
2013-01-25 02:30:00,17.2,6.0,30.42,ESE,113,0.0,2.0,61,0.00,,,0.00,Wunderground v.1.12,2013-01-25 07:30:00,
2013-01-25 02:40:00,17.3,6.1,30.42,ESE,106,0.0,0.0,61,0.00,,,0.00,Wunderground v.1.12,2013-01-25 07:40:00,
2013-01-25 02:50:00,17.3,6.1,30.42,ESE,116,0.0,0.0,61,0.00,,,0.00,Wunderground v.1.12,2013-01-25 07:50:00,
2013-01-25 03:00:00,17.3,6.5,30.41,ESE,113,0.0,5.0,62,0.00,,,0.00,Wunderground v.1.12,2013-01-25 08:00:00,
2013-01-25 03:10:00,17.3,6.1,30.41,ESE,119,0.0,0.0,61,0.00,,,0.00,Wunderground v.1.12,2013-01-25 08:10:00,
2013-01-25 03:20:00,17.3,6.1,30.40,ESE,119,0.0,0.0,61,0.00,,,0.00,Wunderground v.1.12,2013-01-25 08:20:00,
2013-01-25 03:30:00,17.3,6.5,30.39,ESE,113,0.0,5.0,62,0.00,,,0.00,Wunderground v.1.12,2013-01-25 08:30:00,
2013-01-25 03:40:00,17.3,6.8,30.39,ESE,119,1.0,1.0,63,0.00,,,0.00,Wunderground v.1.12,2013-01-25 08:40:00,
2013-01-25 03:50:00,17.3,6.8,30.38,ESE,119,0.0,0.0,63,0.00,,,0.00,Wunderground v.1.12,2013-01-25 08:50:00,
2013-01-25 04:00:00,17.3,6.8,30.37,ESE,113,0.0,5.0,63,0.00,,,0.00,Wunderground v.1.12,2013-01-25 09:00:00,
2013-01-25 04:10:00,17.3,6.8,30.37,ESE,120,1.0,1.0,63,0.00,,,0.00,Wunderground v.1.12,2013-01-25 09:10:00,
2013-01-25 04:20:00,17.3,6.8,30.35,ESE,120,0.0,1.0,63,0.00,,,0.00,Wunderground v.1.12,2013-01-25 09:20:00,
2013-01-25 04:30:00,17.3,6.8,30.34,ESE,113,1.0,3.0,63,0.00,,,0.00,Wunderground v.1.12,2013-01-25 09:30:00,
2013-01-25 04:40:00,17.3,6.8,30.34,ESE,120,1.0,2.0,63,0.00,,,0.00,Wunderground v.1.12,2013-01-25 09:40:00,
2013-01-25 04:50:00,17.3,6.8,30.33,ESE,117,0.0,3.0,63,0.00,,,0.00,Wunderground v.1.12,2013-01-25 09:50:00,
2013-01-25 05:00:00,17.3,6.8,30.32,ESE,113,1.0,5.0,63,0.00,,,0.00,Wunderground v.1.12,2013-01-25 10:00:00,
2013-01-25 05:10:00,17.3,6.1,30.32,SE,124,2.0,2.0,61,0.00,,,0.00,Wunderground v.1.12,2013-01-25 10:10:00,
2013-01-25 05:20:00,17.5,6.7,30.30,SE,124,0.0,0.0,62,0.00,,,0.00,Wunderground v.1.12,2013-01-25 10:20:00,
2013-01-25 05:30:00,17.7,6.9,30.30,SE,135,0.0,3.0,62,0.00,,,0.00,Wunderground v.1.12,2013-01-25 10:30:00,
2013-01-25 05:40:00,17.7,6.9,30.30,ESE,123,0.0,0.0,62,0.00,,,0.00,Wunderground v.1.12,2013-01-25 10:40:00,
2013-01-25 05:50:00,17.7,7.2,30.29,ESE,123,1.0,2.0,63,0.00,,,0.00,Wunderground v.1.12,2013-01-25 10:50:00,
2013-01-25 06:00:00,17.7,7.2,30.28,ESE,113,1.0,5.0,63,0.00,,,0.00,Wunderground v.1.12,2013-01-25 11:00:00,
2013-01-25 06:10:00,17.7,7.2,30.28,ESE,123,1.0,2.0,63,0.00,,,0.00,Wunderground v.1.12,2013-01-25 11:10:00,
2013-01-25 06:20:00,17.8,7.7,30.27,SE,124,1.0,1.0,64,0.00,,,0.00,Wunderground v.1.12,2013-01-25 11:20:00,
2013-01-25 06:30:00,17.8,7.7,30.26,SE,135,1.0,5.0,64,0.00,,,0.00,Wunderground v.1.12,2013-01-25 11:30:00,
2013-01-25 06:40:00,17.8,7.7,30.26,SE,127,2.0,3.0,64,0.00,,,0.00,Wunderground v.1.12,2013-01-25 11:40:00,
2013-01-25 06:50:00,17.7,7.2,30.25,ESE,119,2.0,2.0,63,0.00,,,0.00,Wunderground v.1.12,2013-01-25 11:50:00,
2013-01-25 07:00:00,17.7,7.6,30.24,ESE,113,1.0,5.0,64,0.00,,,0.00,Wunderground v.1.12,2013-01-25 12:00:00,
2013-01-25 07:10:00,17.7,7.6,30.24,ESE,116,1.0,1.0,64,0.00,,,0.00,Wunderground v.1.12,2013-01-25 12:10:00,
2013-01-25 07:30:00,17.7,7.6,30.24,ESE,113,1.0,5.0,64,0.00,,,0.00,Wunderground v.1.12,2013-01-25 12:30:00,
2013-01-25 07:40:00,17.7,7.6,30.24,ESE,116,0.0,0.0,64,0.00,,,0.00,Wunderground v.1.12,2013-01-25 12:40:00,
2013-01-25 07:50:00,17.8,7.7,30.23,ESE,114,1.0,2.0,64,0.00,,,0.00,Wunderground v.1.12,2013-01-25 12:50:00,
2013-01-25 08:00:00,17.8,7.7,30.22,ESE,113,1.0,5.0,64,0.00,,,0.00,Wunderground v.1.12,2013-01-25 13:00:00,
2013-01-25 08:10:00,17.8,7.7,30.22,SE,127,1.0,1.0,64,0.00,,,0.00,Wunderground v.1.12,2013-01-25 13:10:00,
2013-01-25 08:20:00,18.0,8.2,30.21,SE,141,0.0,2.0,65,0.00,,,0.00,Wunderground v.1.12,2013-01-25 13:20:00,
2013-01-25 08:30:00,18.0,8.2,30.20,SE,135,0.0,5.0,65,0.00,,,0.00,Wunderground v.1.12,2013-01-25 13:30:00,
2013-01-25 08:40:00,18.0,8.2,30.20,ESE,121,1.0,1.0,65,0.00,,,0.00,Wunderground v.1.12,2013-01-25 13:40:00,
2013-01-25 08:50:00,18.0,8.2,30.19,ESE,113,1.0,6.0,65,0.00,,,0.00,Wunderground v.1.12,2013-01-25 13:50:00,
2013-01-25 09:00:00,18.1,8.0,30.19,SSE,158,1.0,7.0,64,0.00,,,0.00,Wunderground v.1.12,2013-01-25 14:00:00,
2013-01-25 09:10:00,18.1,7.6,30.19,SSE,158,1.0,4.0,63,0.00,,,0.00,Wunderground v.1.12,2013-01-25 14:10:00,
2013-01-25 09:20:00,18.3,7.8,30.18,ESE,119,1.0,1.0,63,0.00,,,0.00,Wunderground v.1.12,2013-01-25 14:20:00,
2013-01-25 09:30:00,18.4,7.9,30.18,ESE,113,1.0,6.0,63,0.00,,,0.00,Wunderground v.1.12,2013-01-25 14:30:00,
2013-01-25 09:40:00,18.6,7.7,30.18,SE,130,1.0,1.0,62,0.00,,,0.00,Wunderground v.1.12,2013-01-25 14:40:00,
2013-01-25 09:50:00,18.6,7.7,30.17,SE,136,1.0,1.0,62,0.00,,,0.00,Wunderground v.1.12,2013-01-25 14:50:00,
2013-01-25 10:00:00,18.6,8.4,30.17,SE,135,2.0,7.0,64,0.00,,,0.00,Wunderground v.1.12,2013-01-25 15:00:00,
2013-01-25 10:10:00,18.3,9.5,30.17,SSE,147,3.0,3.0,68,0.00,,,0.00,Wunderground v.1.12,2013-01-25 15:10:00,
2013-01-25 10:20:00,18.3,10.1,30.17,SE,135,2.0,8.0,70,0.00,,,0.00,Wunderground v.1.12,2013-01-25 15:20:00,
2013-01-25 10:30:00,18.0,11.4,30.17,SSW,203,2.0,8.0,75,0.00,,,0.00,Wunderground v.1.12,2013-01-25 15:30:00,
2013-01-25 10:40:00,17.8,11.8,30.16,SSW,199,1.0,1.0,77,0.00,,,0.00,Wunderground v.1.12,2013-01-25 15:40:00,
2013-01-25 10:50:00,17.8,12.1,30.17,SSW,198,1.0,1.0,78,0.00,,,0.00,Wunderground v.1.12,2013-01-25 15:50:00,
2013-01-25 11:00:00,18.0,12.6,30.15,SSW,203,0.0,5.0,79,0.00,,,0.00,Wunderground v.1.12,2013-01-25 16:00:00,
2013-01-25 11:10:00,18.0,12.6,30.15,SE,143,1.0,2.0,79,0.00,,,0.00,Wunderground v.1.12,2013-01-25 16:10:00,
2013-01-25 11:20:00,17.8,12.7,30.15,SE,137,2.0,2.0,80,0.00,,,0.00,Wunderground v.1.12,2013-01-25 16:20:00,
2013-01-25 11:30:00,18.3,13.4,30.14,SE,135,1.0,7.0,81,0.00,,,0.00,Wunderground v.1.12,2013-01-25 16:30:00,
2013-01-25 11:40:00,18.4,13.5,30.14,SE,134,1.0,2.0,81,0.00,,,0.00,Wunderground v.1.12,2013-01-25 16:40:00,
2013-01-25 11:50:00,18.6,13.7,30.13,SE,135,1.0,6.0,81,0.00,,,0.00,Wunderground v.1.12,2013-01-25 16:50:00,
2013-01-25 12:00:00,18.8,13.7,30.11,SE,135,1.0,5.0,80,0.00,,,0.00,Wunderground v.1.12,2013-01-25 17:00:00,
2013-01-25 12:10:00,19.1,13.9,30.11,SSE,152,1.0,3.0,80,0.00,,,0.00,Wunderground v.1.12,2013-01-25 17:10:00,
2013-01-25 12:20:00,19.2,14.0,30.10,South,178,1.0,1.0,80,0.00,,,0.00,Wunderground v.1.12,2013-01-25 17:20:00,
2013-01-25 12:30:00,19.9,14.7,30.10,South,180,0.0,3.0,80,0.00,,,0.00,Wunderground v.1.12,2013-01-25 17:30:00,
2013-01-25 12:40:00,19.9,14.4,30.10,SE,134,1.0,1.0,79,0.00,,,0.00,Wunderground v.1.12,2013-01-25 17:40:00,
2013-01-25 12:50:00,20.5,15.0,30.09,SSE,150,1.0,2.0,79,0.00,,,0.00,Wunderground v.1.12,2013-01-25 17:50:00,
2013-01-25 13:00:00,20.8,15.0,30.07,SSE,158,1.0,6.0,78,0.00,,,0.00,Wunderground v.1.12,2013-01-25 18:00:00,
2013-01-25 13:10:00,20.6,14.2,30.07,South,176,2.0,3.0,76,0.00,,,0.00,Wunderground v.1.12,2013-01-25 18:10:00,
2013-01-25 13:20:00,20.3,14.2,30.07,South,180,2.0,7.0,77,0.00,,,0.00,Wunderground v.1.12,2013-01-25 18:20:00,
2013-01-25 13:30:00,21.1,15.3,30.05,SE,135,1.0,6.0,78,0.00,,,0.00,Wunderground v.1.12,2013-01-25 18:30:00,
2013-01-25 13:40:00,21.8,15.4,30.05,SSW,198,2.0,3.0,76,0.00,,,0.00,Wunderground v.1.12,2013-01-25 18:40:00,
2013-01-25 13:50:00,22.2,15.5,30.05,ESE,113,1.0,7.0,75,0.00,,,0.00,Wunderground v.1.12,2013-01-25 18:50:00,
2013-01-25 14:00:00,21.4,14.1,30.03,South,180,2.0,7.0,73,0.00,,,0.00,Wunderground v.1.12,2013-01-25 19:00:00,
2013-01-25 14:10:00,21.4,13.8,30.03,SSW,195,2.0,3.0,72,0.00,,,0.00,Wunderground v.1.12,2013-01-25 19:10:00,
2013-01-25 14:20:00,21.1,13.8,30.03,SSE,165,2.0,2.0,73,0.00,,,0.00,Wunderground v.1.12,2013-01-25 19:20:00,
2013-01-25 14:30:00,21.0,13.7,30.02,South,180,2.0,6.0,73,0.00,,,0.00,Wunderground v.1.12,2013-01-25 19:30:00,
2013-01-25 14:40:00,21.1,13.8,30.02,South,184,1.0,1.0,73,0.00,,,0.00,Wunderground v.1.12,2013-01-25 19:40:00,
2013-01-25 14:50:00,21.1,13.8,30.01,South,179,1.0,3.0,73,0.00,,,0.00,Wunderground v.1.12,2013-01-25 19:50:00,
2013-01-25 15:00:00,21.1,13.8,30.02,South,180,1.0,5.0,73,0.00,,,0.00,Wunderground v.1.12,2013-01-25 20:00:00,
2013-01-25 15:10:00,21.1,13.5,30.02,SSW,200,2.0,4.0,72,0.00,,,0.00,Wunderground v.1.12,2013-01-25 20:10:00,
2013-01-25 15:20:00,21.0,13.4,30.01,SSW,203,2.0,2.0,72,0.00,,,0.00,Wunderground v.1.12,2013-01-25 20:20:00,
2013-01-25 15:30:00,21.0,13.7,30.01,SSW,203,1.0,6.0,73,0.00,,,0.00,Wunderground v.1.12,2013-01-25 20:30:00,
2013-01-25 15:40:00,21.0,13.7,30.01,SSW,202,0.0,2.0,73,0.00,,,0.00,Wunderground v.1.12,2013-01-25 20:40:00,
2013-01-25 15:50:00,20.8,13.5,30.00,SSW,202,1.0,1.0,73,0.00,,,0.00,Wunderground v.1.12,2013-01-25 20:50:00,
2013-01-25 16:00:00,20.8,13.5,30.01,SSW,203,1.0,6.0,73,0.00,,,0.00,Wunderground v.1.12,2013-01-25 21:00:00,
2013-01-25 16:10:00,20.6,13.6,30.01,SSW,202,1.0,1.0,74,0.00,,,0.00,Wunderground v.1.12,2013-01-25 21:10:00,
2013-01-25 16:20:00,20.6,13.6,30.01,SSW,203,1.0,6.0,74,0.00,,,0.00,Wunderground v.1.12,2013-01-25 21:20:00,
2013-01-25 16:40:00,20.8,13.8,30.01,SSW,203,1.0,5.0,74,0.00,,,0.00,Wunderground v.1.12,2013-01-25 21:40:00,
2013-01-25 16:50:00,20.6,13.9,30.00,SW,227,1.0,6.0,75,0.00,,,0.00,Wunderground v.1.12,2013-01-25 21:50:00,
2013-01-25 17:00:00,20.6,13.9,30.00,SSW,203,1.0,7.0,75,0.00,,,0.00,Wunderground v.1.12,2013-01-25 22:00:00,
2013-01-25 17:10:00,20.8,14.4,30.00,SW,226,0.0,1.0,76,0.00,,,0.00,Wunderground v.1.12,2013-01-25 22:10:00,
2013-01-25 17:20:00,20.6,14.2,30.00,SW,226,0.0,0.0,76,0.00,,,0.00,Wunderground v.1.12,2013-01-25 22:20:00,
2013-01-25 17:30:00,20.6,14.2,30.01,SW,225,2.0,7.0,76,0.00,,,0.00,Wunderground v.1.12,2013-01-25 22:30:00,
2013-01-25 17:40:00,20.6,14.2,30.01,SW,229,1.0,1.0,76,0.00,,,0.00,Wunderground v.1.12,2013-01-25 22:40:00,
2013-01-25 17:50:00,20.6,14.2,30.00,SW,225,1.0,6.0,76,0.00,,,0.00,Wunderground v.1.12,2013-01-25 22:50:00,
2013-01-25 18:00:00,20.5,13.8,29.99,SW,225,1.0,6.0,75,0.00,,,0.00,Wunderground v.1.12,2013-01-25 23:00:00,
2013-01-25 18:10:00,20.5,13.8,29.99,SW,223,1.0,2.0,75,0.00,,,0.00,Wunderground v.1.12,2013-01-25 23:10:00,
2013-01-25 18:20:00,20.5,14.1,30.00,SW,225,1.0,6.0,76,0.00,,,0.00,Wunderground v.1.12,2013-01-25 23:20:00,
2013-01-25 18:30:00,20.5,14.1,30.00,SW,225,1.0,5.0,76,0.00,,,0.00,Wunderground v.1.12,2013-01-25 23:30:00,
2013-01-25 18:40:00,20.5,14.1,30.00,SW,223,1.0,2.0,76,0.00,,,0.00,Wunderground v.1.12,2013-01-25 23:40:00,
2013-01-25 18:50:00,20.6,14.2,30.01,SW,223,0.0,0.0,76,0.00,,,0.00,Wunderground v.1.12,2013-01-25 23:50:00,
2013-01-25 19:00:00,20.6,14.5,30.01,SW,225,0.0,2.0,77,0.00,,,0.00,Wunderground v.1.12,2013-01-26 00:00:00,
2013-01-25 19:10:00,20.6,14.5,30.01,SW,223,0.0,0.0,77,0.00,,,0.00,Wunderground v.1.12,2013-01-26 00:10:00,
2013-01-25 19:20:00,20.6,14.5,30.02,SW,225,0.0,3.0,77,0.00,,,0.00,Wunderground v.1.12,2013-01-26 00:20:00,
2013-01-25 19:30:00,20.8,15.0,30.02,N/A,-737280,0.0,0.0,78,0.00,,,0.00,Wunderground v.1.12,2013-01-26 00:30:00,
2013-01-25 19:40:00,20.8,15.0,30.02,SW,223,0.0,0.0,78,0.00,,,0.00,Wunderground v.1.12,2013-01-26 00:40:00,
2013-01-25 19:50:00,21.0,15.2,30.02,SW,223,0.0,0.0,78,0.00,,,0.00,Wunderground v.1.12,2013-01-26 00:50:00,
2013-01-25 20:00:00,21.0,15.5,30.02,SW,225,0.0,6.0,79,0.00,,,0.00,Wunderground v.1.12,2013-01-26 01:00:00,
2013-01-25 20:10:00,21.0,15.8,30.02,SW,223,0.0,3.0,80,0.00,,,0.00,Wunderground v.1.12,2013-01-26 01:10:00,
2013-01-25 20:20:00,21.0,15.8,30.02,SW,225,0.0,4.0,80,0.00,,,0.00,Wunderground v.1.12,2013-01-26 01:20:00,
2013-01-25 20:30:00,21.1,16.2,30.02,SW,225,0.0,3.0,81,0.00,,,0.00,Wunderground v.1.12,2013-01-26 01:30:00,
2013-01-25 20:40:00,21.1,16.5,30.02,SW,223,1.0,1.0,82,0.00,,,0.00,Wunderground v.1.12,2013-01-26 01:40:00,
2013-01-25 20:50:00,21.1,16.5,30.02,SW,225,0.0,5.0,82,0.00,,,0.00,Wunderground v.1.12,2013-01-26 01:50:00,
2013-01-25 21:00:00,21.1,16.5,30.02,SW,225,0.0,3.0,82,0.00,,,0.00,Wunderground v.1.12,2013-01-26 02:00:00,
2013-01-25 21:10:00,21.1,16.7,30.02,SW,223,1.0,1.0,83,0.00,,,0.00,Wunderground v.1.12,2013-01-26 02:10:00,
2013-01-25 21:20:00,21.1,16.7,30.02,SW,223,1.0,1.0,83,0.00,,,0.00,Wunderground v.1.12,2013-01-26 02:20:00,
2013-01-25 21:30:00,21.1,17.0,30.02,SW,225,0.0,3.0,84,0.00,,,0.00,Wunderground v.1.12,2013-01-26 02:30:00,
2013-01-25 21:40:00,21.1,17.0,30.02,SW,223,1.0,1.0,84,0.00,,,0.00,Wunderground v.1.12,2013-01-26 02:40:00,
2013-01-25 21:50:00,21.1,17.0,30.02,SW,225,1.0,5.0,84,0.00,,,0.00,Wunderground v.1.12,2013-01-26 02:50:00,
2013-01-25 22:00:00,21.3,17.2,30.03,N/A,-737280,0.0,0.0,84,0.00,,,0.00,Wunderground v.1.12,2013-01-26 03:00:00,
2013-01-25 22:10:00,21.3,17.2,30.03,SW,223,0.0,0.0,84,0.00,,,0.00,Wunderground v.1.12,2013-01-26 03:10:00,
2013-01-25 22:20:00,21.3,17.5,30.03,N/A,-737280,0.0,0.0,85,0.00,,,0.00,Wunderground v.1.12,2013-01-26 03:20:00,
2013-01-25 22:30:00,21.3,17.5,30.02,N/A,-737280,0.0,0.0,85,0.00,,,0.00,Wunderground v.1.12,2013-01-26 03:30:00,
2013-01-25 22:40:00,21.4,17.6,30.02,SW,223,0.0,0.0,85,0.00,,,0.00,Wunderground v.1.12,2013-01-26 03:40:00,
2013-01-25 22:50:00,21.4,17.6,30.02,SW,223,0.0,0.0,85,0.00,,,0.00,Wunderground v.1.12,2013-01-26 03:50:00,
2013-01-25 23:00:00,21.4,17.6,30.02,N/A,-737280,0.0,0.0,85,0.00,,,0.00,Wunderground v.1.12,2013-01-26 04:00:00,
2013-01-25 23:10:00,21.4,17.6,30.02,SW,223,0.0,0.0,85,0.00,,,0.00,Wunderground v.1.12,2013-01-26 04:10:00,
2013-01-25 23:20:00,21.4,17.6,30.02,N/A,-737280,0.0,0.0,85,0.00,,,0.00,Wunderground v.1.12,2013-01-26 04:20:00,
2013-01-25 23:30:00,21.4,17.6,30.02,N/A,-737280,0.0,0.0,85,0.00,,,0.00,Wunderground v.1.12,2013-01-26 04:30:00,
2013-01-25 23:40:00,21.6,17.8,30.02,SW,224,0.0,0.0,85,0.00,,,0.00,Wunderground v.1.12,2013-01-26 04:40:00,
2013-01-25 23:50:00,21.6,17.8,30.03,SW,220,0.0,0.0,85,0.00,,,0.00,Wunderground v.1.12,2013-01-26 04:50:00,